Onhaye, Belgium
Current Conditions -  °F | °C
As of 2:25 AM on Tuesday 25 Nov 2014 (Local Time) from EBFS Reporting Station
Broken Clouds Broken Clouds  
Wind Chill: 36°   Ceiling: 22000
Heat Index: 36°   Visibility: 5mi
Dew Point: 34°   Wind: 3mph
Humidity: 93%   Direction: 90°E
Pressure: 30.27"   Gusts: NA
Location:  50.24°N, 4.84°E
Report Text: EBFS 250125Z 09003KT 8000 BKN220 02/01 Q1025 BLU
Loading
Personal Weather Stations






























Interactive Weather Map New forecast layout! Learn more

10-Day Weather Forecast

Advertisements
Track Severe Weather on mobile